createdAt,value
2018-09-17T00:00:12.732Z,101841.73
2018-09-17T00:03:18.111Z,101835.88
2018-09-17T00:06:23.485Z,101837.18
2018-09-17T00:09:28.902Z,101832.47
2018-09-17T00:12:34.250Z,101829.63
2018-09-17T00:15:39.630Z,101827.23
2018-09-17T00:18:45.070Z,101819.96
2018-09-17T00:21:50.425Z,101820.43
2018-09-17T00:24:56.175Z,101821.27
2018-09-17T00:28:01.565Z,101828.50
2018-09-17T00:31:07.317Z,101818.49
2018-09-17T00:34:12.720Z,101827.66
2018-09-17T00:37:18.075Z,101838.06
2018-09-17T00:40:23.441Z,101827.97
2018-09-17T00:43:28.801Z,101816.70
2018-09-17T00:46:34.174Z,101812.67
2018-09-17T00:49:39.946Z,101810.58
2018-09-17T00:52:45.478Z,101811.51
2018-09-17T00:55:50.845Z,101795.86
2018-09-17T00:58:56.278Z,101796.17
2018-09-17T01:02:01.647Z,101786.67
2018-09-17T01:05:07.928Z,101785.45
2018-09-17T01:08:13.289Z,101782.98
2018-09-17T01:11:19.037Z,101782.92
2018-09-17T01:14:24.431Z,101776.44
2018-09-17T01:17:29.773Z,101776.06
2018-09-17T01:20:35.149Z,101776.53
2018-09-17T01:23:40.504Z,101778.05
2018-09-17T01:26:46.449Z,101781.56
2018-09-17T01:29:51.905Z,101787.08
2018-09-17T01:32:57.252Z,101790.86
2018-09-17T01:36:02.632Z,101784.23
2018-09-17T01:39:10.577Z,101781.85
2018-09-17T01:42:15.972Z,101781.85
2018-09-17T01:45:21.461Z,101781.06
2018-09-17T01:48:26.918Z,101780.22
2018-09-17T01:51:32.290Z,101780.31
2018-09-17T01:54:37.686Z,101776.59
2018-09-17T01:57:43.078Z,101764.50
2018-09-17T02:00:48.832Z,101769.59
2018-09-17T02:03:54.185Z,101761.37
2018-09-17T02:06:59.566Z,101777.06
2018-09-17T02:10:05.305Z,101775.20
2018-09-17T02:13:11.145Z,101780.52
2018-09-17T02:16:16.704Z,101778.10
2018-09-17T02:19:22.146Z,101773.69
2018-09-17T02:22:27.521Z,101776.67
2018-09-17T02:25:32.906Z,101786.49
2018-09-17T02:28:38.354Z,101772.20
2018-09-17T02:31:43.757Z,101767.17
2018-09-17T02:34:49.613Z,101764.18
2018-09-17T02:37:55.047Z,101768.95
2018-09-17T02:41:00.425Z,101765.11
2018-09-17T02:44:05.801Z,101770.61
2018-09-17T02:47:11.163Z,101765.11
2018-09-17T02:50:16.638Z,101762.77
2018-09-17T02:53:22.042Z,101771.83
2018-09-17T02:56:27.597Z,101762.77
2018-09-17T02:59:33.087Z,101768.79
2018-09-17T03:02:38.743Z,101769.84
2018-09-17T03:05:44.134Z,101767.17
2018-09-17T03:08:49.612Z,101765.81
2018-09-17T03:11:55.052Z,101765.67
2018-09-17T03:15:11.201Z,101761.89
2018-09-17T03:18:17.865Z,101777.81
2018-09-17T03:21:23.418Z,101782.11
2018-09-17T03:24:28.783Z,101787.88
2018-09-17T03:27:34.439Z,101788.77
2018-09-17T03:30:40.035Z,101793.75
2018-09-17T03:33:45.454Z,101795.06
2018-09-17T03:36:51.059Z,101790.73
2018-09-17T03:39:58.228Z,101791.52
2018-09-17T03:43:03.833Z,101800.28
2018-09-17T03:46:09.224Z,101812.03
2018-09-17T03:49:14.869Z,101814.23
2018-09-17T03:52:20.250Z,101806.39
2018-09-17T03:55:25.606Z,101809.28
2018-09-17T03:58:31.069Z,101811.38
2018-09-17T04:01:36.450Z,101811.62
2018-09-17T04:04:41.797Z,101807.93
2018-09-17T04:07:47.182Z,101807.60
2018-09-17T04:10:52.558Z,101811.05
2018-09-17T04:13:58.419Z,101816.46
2018-09-17T04:17:03.794Z,101817.52
2018-09-17T04:20:09.186Z,101818.34
2018-09-17T04:23:14.562Z,101810.61
2018-09-17T04:26:19.930Z,101813.01
2018-09-17T04:29:25.347Z,101812.61
2018-09-17T04:32:30.753Z,101817.30
2018-09-17T04:35:36.111Z,101816.64
2018-09-17T04:38:41.579Z,101821.30
2018-09-17T04:41:46.954Z,101822.10
2018-09-17T04:44:52.315Z,101826.78
2018-09-17T04:47:57.731Z,101830.86
2018-09-17T04:51:03.120Z,101826.41
2018-09-17T04:54:08.853Z,101826.87
2018-09-17T04:57:14.391Z,101830.11
2018-09-17T05:00:19.898Z,101829.14
2018-09-17T05:03:25.266Z,101823.95
2018-09-17T05:06:30.613Z,101821.14
2018-09-17T05:09:36.470Z,101824.94
2018-09-17T05:12:41.860Z,101825.44
2018-09-17T05:15:47.216Z,101824.94
2018-09-17T05:18:52.618Z,101819.49
2018-09-17T05:21:58.138Z,101819.63
2018-09-17T05:25:03.573Z,101817.12
2018-09-17T05:28:09.152Z,101819.78
2018-09-17T05:31:14.558Z,101815.17
2018-09-17T05:34:19.957Z,101815.98
2018-09-17T05:37:25.339Z,101812.56
2018-09-17T05:40:30.929Z,101813.41
2018-09-17T05:43:36.293Z,101809.36
2018-09-17T05:46:41.642Z,101804.91
2018-09-17T05:49:47.706Z,101806.80
2018-09-17T05:52:53.079Z,101814.73
2018-09-17T05:55:58.466Z,101820.00
2018-09-17T05:59:03.977Z,101814.36
2018-09-17T06:02:09.661Z,101814.88
2018-09-17T06:05:15.965Z,101817.13
2018-09-17T06:08:21.438Z,101823.94
2018-09-17T06:11:26.801Z,101820.78
2018-09-17T06:14:32.292Z,101823.07
2018-09-17T06:17:38.295Z,101824.84
2018-09-17T06:20:43.823Z,101828.62
2018-09-17T06:23:49.185Z,101831.28
2018-09-17T06:26:54.559Z,101834.34
2018-09-17T06:30:00.315Z,101834.48
2018-09-17T06:33:06.154Z,101833.67
2018-09-17T06:36:11.808Z,101836.00
2018-09-17T06:39:17.846Z,101830.42
2018-09-17T06:42:23.332Z,101831.17
2018-09-17T06:45:28.802Z,101831.96
2018-09-17T06:48:34.205Z,101843.38
2018-09-17T06:51:39.565Z,101837.38
2018-09-17T06:54:44.938Z,101849.06
2018-09-17T06:57:50.354Z,101853.26
2018-09-17T07:00:55.730Z,101854.33
2018-09-17T07:04:01.133Z,101853.64
2018-09-17T07:07:06.886Z,101856.98
2018-09-17T07:10:12.345Z,101857.39
2018-09-17T07:13:17.706Z,101856.86
2018-09-17T07:16:23.112Z,101855.32
2018-09-17T07:19:28.890Z,101865.57
2018-09-17T07:22:34.253Z,101866.14
2018-09-17T07:25:39.634Z,101867.13
2018-09-17T07:28:45.643Z,101875.45
2018-09-17T07:31:51.025Z,101875.05
2018-09-17T07:34:56.401Z,101870.78
2018-09-17T07:38:01.787Z,101870.78
2018-09-17T07:41:07.266Z,101868.22
2018-09-17T07:44:12.646Z,101870.81
2018-09-17T07:47:18.030Z,101866.78
2018-09-17T07:50:23.396Z,101860.64
2018-09-17T07:53:28.746Z,101865.85
2018-09-17T07:56:34.127Z,101864.92
2018-09-17T07:59:39.494Z,101868.73
2018-09-17T08:02:44.850Z,101873.33
2018-09-17T08:05:50.418Z,101870.09
2018-09-17T08:08:55.818Z,101865.98
2018-09-17T08:12:01.530Z,101854.77
2018-09-17T08:15:07.900Z,101867.11
2018-09-17T08:18:13.339Z,101858.52
2018-09-17T08:21:18.809Z,101867.37
2018-09-17T08:24:24.217Z,101860.27
2018-09-17T08:27:29.974Z,101870.11
2018-09-17T08:30:35.408Z,101866.73
2018-09-17T08:33:40.884Z,101872.21
2018-09-17T08:36:47.031Z,101865.66
2018-09-17T08:39:52.406Z,101878.70
2018-09-17T08:42:57.798Z,101868.74
2018-09-17T08:46:03.326Z,101870.95
2018-09-17T08:49:08.935Z,101871.53
2018-09-17T08:52:14.451Z,101873.98
2018-09-17T08:55:25.156Z,101875.05
2018-09-17T08:58:39.581Z,101883.43
2018-09-17T09:01:50.087Z,101877.30
2018-09-17T09:04:56.245Z,101874.95
2018-09-17T09:08:01.773Z,101880.85
2018-09-17T09:11:12.366Z,101877.78
2018-09-17T09:14:33.057Z,101879.14
2018-09-17T09:17:38.442Z,101876.91
2018-09-17T09:20:43.820Z,101873.06
2018-09-17T09:23:49.182Z,101872.83
2018-09-17T09:26:54.545Z,101869.88
2018-09-17T09:29:59.931Z,101867.00
2018-09-17T09:33:05.370Z,101857.66
2018-09-17T09:36:10.743Z,101860.46
2018-09-17T09:39:16.193Z,101860.33
2018-09-17T09:42:21.769Z,101854.36
2018-09-17T09:45:27.298Z,101857.55
2018-09-17T09:48:32.669Z,101860.22
2018-09-17T09:51:38.041Z,101858.21
2018-09-17T09:54:43.399Z,101858.22
2018-09-17T09:57:48.802Z,101857.88
2018-09-17T10:00:59.401Z,101866.06
2018-09-17T10:04:10.277Z,101855.82
2018-09-17T10:07:15.674Z,101853.17
2018-09-17T10:10:26.415Z,101847.77
2018-09-17T10:13:36.973Z,101845.25
2018-09-17T10:16:46.472Z,101847.56
2018-09-17T10:19:52.854Z,101841.77
2018-09-17T10:22:58.857Z,101839.97
2018-09-17T10:26:04.199Z,101840.44
2018-09-17T10:29:09.608Z,101837.98
2018-09-17T10:32:15.658Z,101840.25
2018-09-17T10:35:21.041Z,101846.00
2018-09-17T10:38:26.417Z,101837.66
2018-09-17T10:41:31.761Z,101842.12
2018-09-17T10:44:37.146Z,101837.56
2018-09-17T10:47:42.535Z,101836.36
2018-09-17T10:50:48.000Z,101841.13
2018-09-17T10:53:53.393Z,101826.07
2018-09-17T10:56:58.747Z,101824.41
2018-09-17T11:00:04.354Z,101821.48
2018-09-17T11:03:09.725Z,101814.78
2018-09-17T11:06:15.081Z,101813.88
2018-09-17T11:09:20.527Z,101806.81
2018-09-17T11:12:26.273Z,101801.73
2018-09-17T11:15:36.758Z,101791.91
2018-09-17T11:18:42.179Z,101793.87
2018-09-17T11:21:47.538Z,101794.85
2018-09-17T11:24:53.067Z,101796.33
2018-09-17T11:27:58.430Z,101786.26
2018-09-17T11:31:03.896Z,101792.31
2018-09-17T11:34:09.288Z,101785.92
2018-09-17T11:37:14.650Z,101783.61
2018-09-17T11:40:20.085Z,101776.80
2018-09-17T11:43:25.612Z,101772.47
2018-09-17T11:46:31.653Z,101774.49
2018-09-17T11:49:37.155Z,101773.24
2018-09-17T11:52:42.511Z,101773.08
2018-09-17T11:55:47.893Z,101774.21
2018-09-17T11:58:53.382Z,101768.33
2018-09-17T12:02:05.449Z,101770.28
2018-09-17T12:05:11.070Z,101758.42
2018-09-17T12:08:18.321Z,101756.73
2018-09-17T12:11:23.669Z,101766.21
2018-09-17T12:14:29.277Z,101767.28
2018-09-17T12:17:35.100Z,101766.69
2018-09-17T12:20:40.573Z,101765.07
2018-09-17T12:23:45.942Z,101764.88
2018-09-17T12:26:52.106Z,101771.12
2018-09-17T12:29:57.522Z,101761.22
2018-09-17T12:33:03.106Z,101764.18
2018-09-17T12:36:08.484Z,101755.83
2018-09-17T12:39:13.937Z,101759.56
2018-09-17T12:42:19.286Z,101762.98
2018-09-17T12:45:25.692Z,101758.19
2018-09-17T12:48:31.057Z,101753.53
2018-09-17T12:51:36.438Z,101754.17
2018-09-17T12:54:41.841Z,101755.32
2018-09-17T12:57:47.264Z,101756.67
2018-09-17T13:00:53.433Z,101766.72
2018-09-17T13:03:58.834Z,101755.82
2018-09-17T13:07:04.278Z,101755.14
2018-09-17T13:10:10.450Z,101750.34
2018-09-17T13:13:15.862Z,101753.12
2018-09-17T13:16:21.262Z,101752.68
2018-09-17T13:19:26.640Z,101757.62
2018-09-17T13:22:32.009Z,101748.78
2018-09-17T13:25:37.382Z,101742.83
2018-09-17T13:28:42.763Z,101737.63
2018-09-17T13:31:48.847Z,101737.17
2018-09-17T13:34:54.445Z,101739.06
2018-09-17T13:38:00.045Z,101733.51
2018-09-17T13:41:05.440Z,101728.55
2018-09-17T13:44:10.893Z,101725.72
2018-09-17T13:47:16.430Z,101738.27
2018-09-17T13:50:21.822Z,101730.66
2018-09-17T13:53:27.267Z,101729.78
2018-09-17T13:56:32.825Z,101716.36
2018-09-17T13:59:38.285Z,101727.20
2018-09-17T14:02:43.672Z,101710.61
2018-09-17T14:05:49.049Z,101711.52
2018-09-17T14:08:54.476Z,101712.75
2018-09-17T14:11:59.871Z,101713.58
2018-09-17T14:15:05.723Z,101710.18
2018-09-17T14:18:12.858Z,101700.53
2018-09-17T14:21:18.315Z,101710.23
2018-09-17T14:24:23.865Z,101704.16
2018-09-17T14:27:29.367Z,101699.42
2018-09-17T14:30:34.961Z,101691.54
2018-09-17T14:33:41.606Z,101689.60
2018-09-17T14:36:46.994Z,101695.88
2018-09-17T14:39:52.413Z,101690.87
2018-09-17T14:42:58.006Z,101680.66
2018-09-17T14:46:03.730Z,101689.08
2018-09-17T14:49:09.367Z,101675.68
2018-09-17T14:52:15.222Z,101675.28
2018-09-17T14:55:20.838Z,101669.70
2018-09-17T14:58:26.347Z,101671.41
2018-09-17T15:01:31.934Z,101665.00
2018-09-17T15:04:37.459Z,101669.44
2018-09-17T15:07:43.074Z,101670.81
2018-09-17T15:10:48.738Z,101668.67
2018-09-17T15:13:54.487Z,101672.28
2018-09-17T15:16:59.896Z,101664.52
2018-09-17T15:20:05.313Z,101661.16
2018-09-17T15:23:10.706Z,101662.16
2018-09-17T15:26:16.248Z,101654.49
2018-09-17T15:29:21.789Z,101653.47
2018-09-17T15:32:27.278Z,101657.73
2018-09-17T15:35:32.820Z,101651.02
2018-09-17T15:38:38.218Z,101643.02
2018-09-17T15:41:43.607Z,101642.05
2018-09-17T15:44:48.970Z,101641.80
2018-09-17T15:47:54.389Z,101643.63
2018-09-17T15:50:59.857Z,101644.77
2018-09-17T15:54:05.238Z,101646.87
2018-09-17T15:57:10.628Z,101634.86
2018-09-17T16:00:16.019Z,101630.47
2018-09-17T16:03:22.386Z,101629.34
2018-09-17T16:06:27.758Z,101618.97
2018-09-17T16:09:33.201Z,101625.79
2018-09-17T16:12:38.577Z,101617.54
2018-09-17T16:15:44.050Z,101625.03
2018-09-17T16:18:49.900Z,101619.44
2018-09-17T16:21:55.274Z,101623.13
2018-09-17T16:25:00.682Z,101617.66
2018-09-17T16:28:06.218Z,101615.70
2018-09-17T16:31:11.609Z,101613.13
2018-09-17T16:34:17.062Z,101612.72
2018-09-17T16:37:22.433Z,101610.65
2018-09-17T16:40:27.829Z,101611.70
2018-09-17T16:43:33.195Z,101611.80
2018-09-17T16:46:38.594Z,101611.67
2018-09-17T16:49:43.986Z,101612.56
2018-09-17T16:52:49.381Z,101614.30
2018-09-17T16:55:54.936Z,101617.45
2018-09-17T16:59:00.425Z,101616.97
2018-09-17T17:02:05.951Z,101614.63
2018-09-17T17:05:11.664Z,101615.80
2018-09-17T17:08:17.254Z,101613.88
2018-09-17T17:11:22.791Z,101613.17
2018-09-17T17:14:28.290Z,101618.87
2018-09-17T17:17:33.682Z,101627.86
2018-09-17T17:20:39.786Z,101620.78
2018-09-17T17:23:45.373Z,101618.66
2018-09-17T17:26:50.729Z,101616.53
2018-09-17T17:29:56.789Z,101618.32
2018-09-17T17:33:02.233Z,101626.94
2018-09-17T17:36:08.038Z,101622.59
2018-09-17T17:39:13.530Z,101620.08
2018-09-17T17:42:19.998Z,101622.54
2018-09-17T17:45:25.390Z,101621.88
2018-09-17T17:48:30.911Z,101620.18
2018-09-17T17:51:36.269Z,101616.50
2018-09-17T17:54:41.707Z,101615.17
2018-09-17T17:57:47.927Z,101617.34
2018-09-17T18:00:53.536Z,101615.09
2018-09-17T18:03:59.286Z,101618.69
2018-09-17T18:07:05.046Z,101615.80
2018-09-17T18:10:10.416Z,101623.72
2018-09-17T18:13:16.431Z,101624.91
2018-09-17T18:16:25.854Z,101632.50
2018-09-17T18:19:31.333Z,101635.00
2018-09-17T18:22:36.898Z,101626.93
2018-09-17T18:25:42.294Z,101635.94
2018-09-17T18:28:47.817Z,101624.53
2018-09-17T18:31:53.386Z,101631.72
2018-09-17T18:34:58.762Z,101626.30
2018-09-17T18:38:04.149Z,101630.59
2018-09-17T18:41:09.609Z,101626.76
2018-09-17T18:44:15.214Z,101630.45
2018-09-17T18:47:20.578Z,101632.19
2018-09-17T18:50:26.127Z,101627.47
2018-09-17T18:53:31.498Z,101630.44
2018-09-17T18:56:36.901Z,101625.59
2018-09-17T18:59:42.360Z,101626.52
2018-09-17T19:02:47.772Z,101631.41
2018-09-17T19:05:53.494Z,101623.00
2018-09-17T19:08:59.040Z,101623.81
2018-09-17T19:12:04.762Z,101620.69
2018-09-17T19:15:16.364Z,101624.39
2018-09-17T19:18:22.020Z,101625.80
2018-09-17T19:21:32.851Z,101622.77
2018-09-17T19:24:38.410Z,101619.04
2018-09-17T19:27:49.151Z,101621.64
2018-09-17T19:30:54.710Z,101619.64
2018-09-17T19:34:00.092Z,101622.59
2018-09-17T19:37:10.853Z,101610.33
2018-09-17T19:40:17.775Z,101617.02
2018-09-17T19:43:23.411Z,101610.64
2018-09-17T19:46:28.847Z,101614.23
2018-09-17T19:49:34.328Z,101619.91
2018-09-17T19:52:39.890Z,101621.93
2018-09-17T19:55:46.297Z,101613.85
2018-09-17T19:58:57.177Z,101617.14
2018-09-17T20:02:02.570Z,101611.16
2018-09-17T20:05:13.606Z,101608.69
2018-09-17T20:08:19.125Z,101602.41
2018-09-17T20:11:24.745Z,101599.58
2018-09-17T20:14:30.117Z,101602.87
2018-09-17T20:17:35.830Z,101607.71
2018-09-17T20:20:41.221Z,101605.52
2018-09-17T20:23:46.606Z,101603.63
2018-09-17T20:26:52.490Z,101595.80
2018-09-17T20:29:58.048Z,101590.54
2018-09-17T20:33:05.252Z,101589.58
2018-09-17T20:36:15.657Z,101587.72
2018-09-17T20:39:23.201Z,101589.45
2018-09-17T20:42:28.574Z,101587.38
2018-09-17T20:45:35.266Z,101587.66
2018-09-17T20:48:52.260Z,101585.44
2018-09-17T20:51:58.541Z,101585.05
2018-09-17T20:55:03.925Z,101578.87
2018-09-17T20:58:09.861Z,101576.30
2018-09-17T21:01:15.417Z,101569.55
2018-09-17T21:04:20.934Z,101577.13
2018-09-17T21:07:26.653Z,101573.47
2018-09-17T21:10:32.134Z,101571.04
2018-09-17T21:13:37.518Z,101569.02
2018-09-17T21:16:42.935Z,101564.67
2018-09-17T21:19:48.386Z,101559.42
2018-09-17T21:22:53.766Z,101560.02
2018-09-17T21:25:59.133Z,101559.45
2018-09-17T21:29:04.645Z,101559.88
2018-09-17T21:32:10.033Z,101561.47
2018-09-17T21:35:15.462Z,101560.05
2018-09-17T21:38:21.108Z,101559.30
2018-09-17T21:41:26.577Z,101553.84
2018-09-17T21:44:31.959Z,101551.41
2018-09-17T21:47:37.545Z,101551.02
2018-09-17T21:50:42.998Z,101546.91
2018-09-17T21:53:48.402Z,101544.84
2018-09-17T21:56:53.761Z,101540.73
2018-09-17T21:59:59.720Z,101543.08
2018-09-17T22:03:05.647Z,101541.64
2018-09-17T22:06:10.997Z,101531.89
2018-09-17T22:09:16.834Z,101530.77
2018-09-17T22:12:22.653Z,101531.45
2018-09-17T22:15:28.353Z,101531.52
2018-09-17T22:18:33.757Z,101532.55
2018-09-17T22:21:39.113Z,101533.30
2018-09-17T22:24:44.504Z,101536.95
2018-09-17T22:27:49.905Z,101535.80
2018-09-17T22:30:55.290Z,101533.36
2018-09-17T22:34:00.695Z,101528.19
2018-09-17T22:37:06.623Z,101531.39
2018-09-17T22:40:12.150Z,101533.08
2018-09-17T22:43:17.509Z,101522.30
2018-09-17T22:46:22.969Z,101524.38
2018-09-17T22:49:28.438Z,101522.48
2018-09-17T22:52:33.834Z,101515.36
2018-09-17T22:55:39.186Z,101516.47
2018-09-17T22:58:45.305Z,101511.77
2018-09-17T23:01:50.663Z,101509.89
2018-09-17T23:04:56.034Z,101504.75
2018-09-17T23:08:01.486Z,101503.31
2018-09-17T23:11:07.385Z,101501.06
2018-09-17T23:14:12.741Z,101500.14
2018-09-17T23:17:18.199Z,101494.70
2018-09-17T23:20:23.564Z,101491.69
2018-09-17T23:23:29.351Z,101488.33
2018-09-17T23:26:34.713Z,101487.86
2018-09-17T23:29:40.194Z,101491.88
2018-09-17T23:32:45.676Z,101492.42
2018-09-17T23:35:51.149Z,101484.09
2018-09-17T23:38:56.702Z,101483.39
2018-09-17T23:42:02.062Z,101485.25
2018-09-17T23:45:07.590Z,101486.53
2018-09-17T23:48:13.173Z,101488.61
2018-09-17T23:51:18.882Z,101484.98
2018-09-17T23:54:24.282Z,101486.69
2018-09-17T23:57:29.774Z,101482.02
